sensor_id;sensor_type;location;lat;lon;timestamp;P1;durP1;ratioP1;P2;durP2;ratioP2
36415;SDS011;22447;44.530;18.620;2024-03-17T00:02:22;97.32;;;47.03;;
36415;SDS011;22447;44.530;18.620;2024-03-17T00:04:48;96.50;;;48.95;;
36415;SDS011;22447;44.530;18.620;2024-03-17T00:07:14;97.55;;;49.85;;
36415;SDS011;22447;44.530;18.620;2024-03-17T00:09:40;105.78;;;58.75;;
36415;SDS011;22447;44.530;18.620;2024-03-17T00:12:07;104.63;;;59.72;;
36415;SDS011;22447;44.530;18.620;2024-03-17T00:14:33;95.60;;;58.75;;
36415;SDS011;22447;44.530;18.620;2024-03-17T00:17:00;78.75;;;45.80;;
36415;SDS011;22447;44.530;18.620;2024-03-17T00:19:26;78.25;;;42.67;;
36415;SDS011;22447;44.530;18.620;2024-03-17T00:21:52;65.60;;;40.63;;
36415;SDS011;22447;44.530;18.620;2024-03-17T00:24:18;69.95;;;41.60;;
36415;SDS011;22447;44.530;18.620;2024-03-17T00:26:48;71.57;;;41.17;;
36415;SDS011;22447;44.530;18.620;2024-03-17T00:29:17;97.05;;;55.15;;
36415;SDS011;22447;44.530;18.620;2024-03-17T00:31:42;97.85;;;55.92;;
36415;SDS011;22447;44.530;18.620;2024-03-17T00:34:08;84.22;;;50.05;;
36415;SDS011;22447;44.530;18.620;2024-03-17T00:36:35;89.55;;;48.47;;
36415;SDS011;22447;44.530;18.620;2024-03-17T00:39:01;73.65;;;40.65;;
36415;SDS011;22447;44.530;18.620;2024-03-17T00:41:28;71.75;;;41.55;;
36415;SDS011;22447;44.530;18.620;2024-03-17T00:43:54;82.80;;;41.65;;
36415;SDS011;22447;44.530;18.620;2024-03-17T00:46:20;80.07;;;41.92;;
36415;SDS011;22447;44.530;18.620;2024-03-17T00:48:49;80.38;;;40.30;;
36415;SDS011;22447;44.530;18.620;2024-03-17T00:51:16;84.68;;;43.25;;
36415;SDS011;22447;44.530;18.620;2024-03-17T00:53:42;95.10;;;42.78;;
36415;SDS011;22447;44.530;18.620;2024-03-17T00:56:08;91.82;;;42.63;;
36415;SDS011;22447;44.530;18.620;2024-03-17T00:58:34;86.28;;;44.67;;
36415;SDS011;22447;44.530;18.620;2024-03-17T01:01:00;90.38;;;44.28;;
36415;SDS011;22447;44.530;18.620;2024-03-17T01:03:26;109.10;;;48.78;;
36415;SDS011;22447;44.530;18.620;2024-03-17T01:05:53;96.15;;;48.60;;
36415;SDS011;22447;44.530;18.620;2024-03-17T01:08:19;96.90;;;47.35;;
36415;SDS011;22447;44.530;18.620;2024-03-17T01:10:46;119.05;;;56.55;;
36415;SDS011;22447;44.530;18.620;2024-03-17T01:13:15;92.70;;;46.78;;
36415;SDS011;22447;44.530;18.620;2024-03-17T01:15:41;83.97;;;43.22;;
36415;SDS011;22447;44.530;18.620;2024-03-17T01:18:08;69.30;;;39.47;;
36415;SDS011;22447;44.530;18.620;2024-03-17T01:20:34;78.60;;;41.35;;
36415;SDS011;22447;44.530;18.620;2024-03-17T01:23:01;70.32;;;40.13;;
36415;SDS011;22447;44.530;18.620;2024-03-17T01:25:27;66.68;;;38.58;;
36415;SDS011;22447;44.530;18.620;2024-03-17T01:27:54;86.07;;;40.80;;
36415;SDS011;22447;44.530;18.620;2024-03-17T01:30:21;73.45;;;39.78;;
36415;SDS011;22447;44.530;18.620;2024-03-17T01:32:48;73.55;;;40.35;;
36415;SDS011;22447;44.530;18.620;2024-03-17T01:35:17;71.07;;;38.80;;
36415;SDS011;22447;44.530;18.620;2024-03-17T01:37:43;72.15;;;38.08;;
36415;SDS011;22447;44.530;18.620;2024-03-17T01:40:09;66.10;;;36.35;;
36415;SDS011;22447;44.530;18.620;2024-03-17T01:42:39;74.63;;;37.22;;
36415;SDS011;22447;44.530;18.620;2024-03-17T01:47:45;83.78;;;43.60;;
36415;SDS011;22447;44.530;18.620;2024-03-17T01:50:11;100.40;;;47.60;;
36415;SDS011;22447;44.530;18.620;2024-03-17T01:52:38;84.63;;;39.42;;
36415;SDS011;22447;44.530;18.620;2024-03-17T01:55:05;79.15;;;38.60;;
36415;SDS011;22447;44.530;18.620;2024-03-17T01:57:32;70.22;;;37.38;;
36415;SDS011;22447;44.530;18.620;2024-03-17T01:59:58;87.93;;;45.30;;
36415;SDS011;22447;44.530;18.620;2024-03-17T02:02:25;64.85;;;37.22;;
36415;SDS011;22447;44.530;18.620;2024-03-17T02:04:51;72.47;;;38.45;;
36415;SDS011;22447;44.530;18.620;2024-03-17T02:07:18;82.07;;;45.00;;
36415;SDS011;22447;44.530;18.620;2024-03-17T02:09:44;74.15;;;40.25;;
36415;SDS011;22447;44.530;18.620;2024-03-17T02:12:09;58.55;;;34.97;;
36415;SDS011;22447;44.530;18.620;2024-03-17T02:14:37;55.10;;;33.55;;
36415;SDS011;22447;44.530;18.620;2024-03-17T02:17:03;59.53;;;37.00;;
36415;SDS011;22447;44.530;18.620;2024-03-17T02:19:29;59.95;;;35.38;;
36415;SDS011;22447;44.530;18.620;2024-03-17T02:21:55;54.28;;;34.22;;
36415;SDS011;22447;44.530;18.620;2024-03-17T02:24:22;62.05;;;38.83;;
36415;SDS011;22447;44.530;18.620;2024-03-17T02:26:48;72.07;;;42.63;;
36415;SDS011;22447;44.530;18.620;2024-03-17T02:29:13;71.40;;;41.65;;
36415;SDS011;22447;44.530;18.620;2024-03-17T02:31:39;57.47;;;37.83;;
36415;SDS011;22447;44.530;18.620;2024-03-17T02:34:05;65.50;;;40.50;;
36415;SDS011;22447;44.530;18.620;2024-03-17T02:36:31;71.45;;;44.75;;
36415;SDS011;22447;44.530;18.620;2024-03-17T02:38:57;63.13;;;40.67;;
36415;SDS011;22447;44.530;18.620;2024-03-17T02:41:42;68.60;;;42.53;;
36415;SDS011;22447;44.530;18.620;2024-03-17T02:44:08;66.95;;;40.80;;
36415;SDS011;22447;44.530;18.620;2024-03-17T02:46:36;67.68;;;41.97;;
36415;SDS011;22447;44.530;18.620;2024-03-17T02:49:03;59.78;;;40.72;;
36415;SDS011;22447;44.530;18.620;2024-03-17T02:51:29;64.78;;;42.10;;
36415;SDS011;22447;44.530;18.620;2024-03-17T02:53:55;67.10;;;41.42;;
36415;SDS011;22447;44.530;18.620;2024-03-17T02:56:21;64.22;;;41.20;;
36415;SDS011;22447;44.530;18.620;2024-03-17T02:58:47;63.40;;;39.88;;
36415;SDS011;22447;44.530;18.620;2024-03-17T03:01:14;64.60;;;41.33;;
36415;SDS011;22447;44.530;18.620;2024-03-17T03:03:40;67.95;;;41.88;;
36415;SDS011;22447;44.530;18.620;2024-03-17T03:06:06;68.68;;;42.40;;
36415;SDS011;22447;44.530;18.620;2024-03-17T03:08:37;79.45;;;48.28;;
36415;SDS011;22447;44.530;18.620;2024-03-17T03:11:06;77.80;;;45.90;;
36415;SDS011;22447;44.530;18.620;2024-03-17T03:13:36;71.57;;;43.80;;
36415;SDS011;22447;44.530;18.620;2024-03-17T03:16:09;70.28;;;42.80;;
36415;SDS011;22447;44.530;18.620;2024-03-17T03:18:37;66.75;;;42.58;;
36415;SDS011;22447;44.530;18.620;2024-03-17T03:21:04;63.03;;;37.78;;
36415;SDS011;22447;44.530;18.620;2024-03-17T03:23:31;59.30;;;38.75;;
36415;SDS011;22447;44.530;18.620;2024-03-17T03:25:57;59.92;;;39.03;;
36415;SDS011;22447;44.530;18.620;2024-03-17T03:28:25;59.30;;;38.67;;
36415;SDS011;22447;44.530;18.620;2024-03-17T03:30:52;71.72;;;42.03;;
36415;SDS011;22447;44.530;18.620;2024-03-17T03:33:18;67.03;;;38.83;;
36415;SDS011;22447;44.530;18.620;2024-03-17T03:35:45;67.95;;;43.15;;
36415;SDS011;22447;44.530;18.620;2024-03-17T03:38:11;137.05;;;70.07;;
36415;SDS011;22447;44.530;18.620;2024-03-17T03:40:41;117.93;;;63.17;;
36415;SDS011;22447;44.530;18.620;2024-03-17T03:43:07;81.15;;;46.72;;
36415;SDS011;22447;44.530;18.620;2024-03-17T03:45:36;83.65;;;46.97;;
36415;SDS011;22447;44.530;18.620;2024-03-17T03:48:03;78.40;;;45.33;;
36415;SDS011;22447;44.530;18.620;2024-03-17T03:50:29;77.40;;;44.90;;
36415;SDS011;22447;44.530;18.620;2024-03-17T03:52:56;94.97;;;52.53;;
36415;SDS011;22447;44.530;18.620;2024-03-17T03:55:22;81.47;;;48.80;;
36415;SDS011;22447;44.530;18.620;2024-03-17T03:57:49;111.13;;;56.55;;
36415;SDS011;22447;44.530;18.620;2024-03-17T04:00:20;82.03;;;45.92;;
36415;SDS011;22447;44.530;18.620;2024-03-17T04:02:50;72.25;;;41.90;;
36415;SDS011;22447;44.530;18.620;2024-03-17T04:05:18;72.85;;;42.42;;
36415;SDS011;22447;44.530;18.620;2024-03-17T04:07:45;72.18;;;40.08;;
36415;SDS011;22447;44.530;18.620;2024-03-17T04:10:15;75.47;;;42.70;;
36415;SDS011;22447;44.530;18.620;2024-03-17T04:12:44;77.18;;;42.67;;
36415;SDS011;22447;44.530;18.620;2024-03-17T04:15:10;79.85;;;44.97;;
36415;SDS011;22447;44.530;18.620;2024-03-17T04:17:36;73.05;;;41.67;;
36415;SDS011;22447;44.530;18.620;2024-03-17T04:20:03;70.40;;;42.10;;
36415;SDS011;22447;44.530;18.620;2024-03-17T04:22:34;62.35;;;39.80;;
36415;SDS011;22447;44.530;18.620;2024-03-17T04:25:00;68.50;;;39.92;;
36415;SDS011;22447;44.530;18.620;2024-03-17T04:27:26;70.40;;;42.05;;
36415;SDS011;22447;44.530;18.620;2024-03-17T04:29:53;69.57;;;43.72;;
36415;SDS011;22447;44.530;18.620;2024-03-17T04:32:20;72.32;;;43.78;;
36415;SDS011;22447;44.530;18.620;2024-03-17T04:34:47;70.68;;;44.17;;
36415;SDS011;22447;44.530;18.620;2024-03-17T04:37:13;71.40;;;44.78;;
36415;SDS011;22447;44.530;18.620;2024-03-17T04:39:39;69.65;;;43.00;;
36415;SDS011;22447;44.530;18.620;2024-03-17T04:42:07;64.68;;;43.10;;
36415;SDS011;22447;44.530;18.620;2024-03-17T04:44:33;75.15;;;46.53;;
36415;SDS011;22447;44.530;18.620;2024-03-17T04:46:59;73.20;;;45.03;;
36415;SDS011;22447;44.530;18.620;2024-03-17T04:49:24;66.93;;;42.60;;
36415;SDS011;22447;44.530;18.620;2024-03-17T04:51:50;63.13;;;41.08;;
36415;SDS011;22447;44.530;18.620;2024-03-17T04:54:16;61.85;;;40.35;;
36415;SDS011;22447;44.530;18.620;2024-03-17T04:56:42;62.22;;;39.58;;
36415;SDS011;22447;44.530;18.620;2024-03-17T04:59:08;59.22;;;39.38;;
36415;SDS011;22447;44.530;18.620;2024-03-17T05:01:34;57.58;;;38.33;;
36415;SDS011;22447;44.530;18.620;2024-03-17T05:04:04;60.38;;;40.55;;
36415;SDS011;22447;44.530;18.620;2024-03-17T05:06:30;61.95;;;39.50;;
36415;SDS011;22447;44.530;18.620;2024-03-17T05:08:56;59.00;;;38.45;;
36415;SDS011;22447;44.530;18.620;2024-03-17T05:11:23;56.03;;;36.60;;
36415;SDS011;22447;44.530;18.620;2024-03-17T05:13:52;52.53;;;36.10;;
36415;SDS011;22447;44.530;18.620;2024-03-17T05:16:17;53.33;;;37.83;;
36415;SDS011;22447;44.530;18.620;2024-03-17T05:18:43;60.78;;;39.00;;
36415;SDS011;22447;44.530;18.620;2024-03-17T05:21:09;61.15;;;39.90;;
36415;SDS011;22447;44.530;18.620;2024-03-17T05:23:36;61.22;;;39.38;;
36415;SDS011;22447;44.530;18.620;2024-03-17T05:26:02;56.38;;;37.67;;
36415;SDS011;22447;44.530;18.620;2024-03-17T05:28:32;64.88;;;41.25;;
36415;SDS011;22447;44.530;18.620;2024-03-17T05:30:58;61.97;;;38.67;;
36415;SDS011;22447;44.530;18.620;2024-03-17T05:33:25;62.85;;;41.92;;
36415;SDS011;22447;44.530;18.620;2024-03-17T05:35:56;61.45;;;42.38;;
36415;SDS011;22447;44.530;18.620;2024-03-17T05:38:24;58.33;;;39.20;;
36415;SDS011;22447;44.530;18.620;2024-03-17T05:43:27;63.03;;;42.72;;
36415;SDS011;22447;44.530;18.620;2024-03-17T05:45:57;60.33;;;40.53;;
36415;SDS011;22447;44.530;18.620;2024-03-17T05:48:23;72.37;;;49.40;;
36415;SDS011;22447;44.530;18.620;2024-03-17T05:50:49;64.05;;;41.58;;
36415;SDS011;22447;44.530;18.620;2024-03-17T05:53:19;63.97;;;41.70;;
36415;SDS011;22447;44.530;18.620;2024-03-17T05:55:46;56.65;;;40.28;;
36415;SDS011;22447;44.530;18.620;2024-03-17T05:58:12;60.47;;;42.35;;
36415;SDS011;22447;44.530;18.620;2024-03-17T06:00:38;62.50;;;42.53;;
36415;SDS011;22447;44.530;18.620;2024-03-17T06:03:05;51.83;;;36.17;;
36415;SDS011;22447;44.530;18.620;2024-03-17T06:05:32;49.10;;;34.17;;
36415;SDS011;22447;44.530;18.620;2024-03-17T06:07:59;47.58;;;33.15;;
36415;SDS011;22447;44.530;18.620;2024-03-17T06:10:26;56.50;;;37.05;;
36415;SDS011;22447;44.530;18.620;2024-03-17T06:12:52;55.10;;;37.85;;
36415;SDS011;22447;44.530;18.620;2024-03-17T06:15:18;55.50;;;38.92;;
36415;SDS011;22447;44.530;18.620;2024-03-17T06:17:46;52.92;;;36.42;;
36415;SDS011;22447;44.530;18.620;2024-03-17T06:20:12;54.42;;;36.95;;
36415;SDS011;22447;44.530;18.620;2024-03-17T06:22:39;61.10;;;40.15;;
36415;SDS011;22447;44.530;18.620;2024-03-17T06:25:05;52.03;;;35.45;;
36415;SDS011;22447;44.530;18.620;2024-03-17T06:27:32;51.05;;;34.72;;
36415;SDS011;22447;44.530;18.620;2024-03-17T06:30:00;47.05;;;32.90;;
36415;SDS011;22447;44.530;18.620;2024-03-17T06:32:32;56.13;;;36.50;;
36415;SDS011;22447;44.530;18.620;2024-03-17T06:34:59;58.97;;;39.78;;
36415;SDS011;22447;44.530;18.620;2024-03-17T06:37:26;63.25;;;42.55;;
36415;SDS011;22447;44.530;18.620;2024-03-17T06:39:52;65.38;;;42.97;;
36415;SDS011;22447;44.530;18.620;2024-03-17T06:42:18;68.13;;;43.58;;
36415;SDS011;22447;44.530;18.620;2024-03-17T06:44:44;64.57;;;43.47;;
36415;SDS011;22447;44.530;18.620;2024-03-17T06:47:10;56.90;;;37.47;;
36415;SDS011;22447;44.530;18.620;2024-03-17T06:49:36;51.78;;;36.65;;
36415;SDS011;22447;44.530;18.620;2024-03-17T06:52:02;50.65;;;36.08;;
36415;SDS011;22447;44.530;18.620;2024-03-17T06:54:28;52.65;;;35.83;;
36415;SDS011;22447;44.530;18.620;2024-03-17T06:56:54;50.58;;;34.33;;
36415;SDS011;22447;44.530;18.620;2024-03-17T06:59:20;44.47;;;31.98;;
36415;SDS011;22447;44.530;18.620;2024-03-17T07:01:46;45.42;;;31.38;;
36415;SDS011;22447;44.530;18.620;2024-03-17T07:04:12;44.65;;;30.95;;
36415;SDS011;22447;44.530;18.620;2024-03-17T07:06:38;48.15;;;34.15;;
36415;SDS011;22447;44.530;18.620;2024-03-17T07:09:04;47.75;;;32.58;;
36415;SDS011;22447;44.530;18.620;2024-03-17T07:11:30;46.47;;;32.20;;
36415;SDS011;22447;44.530;18.620;2024-03-17T07:13:57;48.75;;;31.55;;
36415;SDS011;22447;44.530;18.620;2024-03-17T07:16:23;48.25;;;33.95;;
36415;SDS011;22447;44.530;18.620;2024-03-17T07:18:52;51.50;;;37.17;;
36415;SDS011;22447;44.530;18.620;2024-03-17T07:21:24;60.05;;;41.63;;
36415;SDS011;22447;44.530;18.620;2024-03-17T07:23:50;66.55;;;44.95;;
36415;SDS011;22447;44.530;18.620;2024-03-17T07:26:16;88.75;;;51.42;;
36415;SDS011;22447;44.530;18.620;2024-03-17T07:28:42;88.75;;;51.67;;
36415;SDS011;22447;44.530;18.620;2024-03-17T07:31:10;74.35;;;43.08;;
36415;SDS011;22447;44.530;18.620;2024-03-17T07:33:36;76.82;;;40.35;;
36415;SDS011;22447;44.530;18.620;2024-03-17T07:36:02;79.35;;;38.90;;
36415;SDS011;22447;44.530;18.620;2024-03-17T07:38:30;77.85;;;39.17;;
36415;SDS011;22447;44.530;18.620;2024-03-17T07:43:26;55.80;;;34.03;;
36415;SDS011;22447;44.530;18.620;2024-03-17T07:46:06;66.38;;;37.95;;
36415;SDS011;22447;44.530;18.620;2024-03-17T07:48:40;65.82;;;36.08;;
36415;SDS011;22447;44.530;18.620;2024-03-17T07:51:10;68.57;;;36.55;;
36415;SDS011;22447;44.530;18.620;2024-03-17T07:53:42;71.20;;;37.67;;
36415;SDS011;22447;44.530;18.620;2024-03-17T07:56:11;74.97;;;41.10;;
36415;SDS011;22447;44.530;18.620;2024-03-17T07:58:39;83.75;;;43.83;;
36415;SDS011;22447;44.530;18.620;2024-03-17T08:01:06;227.55;;;78.43;;
36415;SDS011;22447;44.530;18.620;2024-03-17T08:03:35;262.45;;;87.70;;
36415;SDS011;22447;44.530;18.620;2024-03-17T08:06:04;254.57;;;86.22;;
36415;SDS011;22447;44.530;18.620;2024-03-17T08:08:32;281.17;;;93.50;;
36415;SDS011;22447;44.530;18.620;2024-03-17T08:11:00;211.52;;;82.03;;
36415;SDS011;22447;44.530;18.620;2024-03-17T08:13:29;146.18;;;61.17;;
36415;SDS011;22447;44.530;18.620;2024-03-17T08:16:06;186.27;;;72.95;;
36415;SDS011;22447;44.530;18.620;2024-03-17T08:18:34;175.30;;;70.07;;
36415;SDS011;22447;44.530;18.620;2024-03-17T08:21:00;168.27;;;72.32;;
36415;SDS011;22447;44.530;18.620;2024-03-17T08:23:29;159.98;;;68.03;;
36415;SDS011;22447;44.530;18.620;2024-03-17T08:25:55;161.80;;;72.70;;
36415;SDS011;22447;44.530;18.620;2024-03-17T08:28:22;172.95;;;70.32;;
36415;SDS011;22447;44.530;18.620;2024-03-17T08:30:53;161.70;;;67.88;;
36415;SDS011;22447;44.530;18.620;2024-03-17T08:33:23;165.95;;;70.47;;
36415;SDS011;22447;44.530;18.620;2024-03-17T08:35:56;171.95;;;71.82;;
36415;SDS011;22447;44.530;18.620;2024-03-17T08:38:22;206.05;;;79.85;;
36415;SDS011;22447;44.530;18.620;2024-03-17T08:40:52;200.00;;;79.32;;
36415;SDS011;22447;44.530;18.620;2024-03-17T08:43:19;181.35;;;73.50;;
36415;SDS011;22447;44.530;18.620;2024-03-17T08:45:56;187.52;;;74.43;;
36415;SDS011;22447;44.530;18.620;2024-03-17T08:48:28;226.73;;;86.35;;
36415;SDS011;22447;44.530;18.620;2024-03-17T08:50:56;227.43;;;86.78;;
36415;SDS011;22447;44.530;18.620;2024-03-17T08:53:22;244.70;;;90.97;;
36415;SDS011;22447;44.530;18.620;2024-03-17T08:55:49;222.85;;;88.25;;
36415;SDS011;22447;44.530;18.620;2024-03-17T08:58:15;215.07;;;84.80;;
36415;SDS011;22447;44.530;18.620;2024-03-17T09:00:41;178.70;;;76.35;;
36415;SDS011;22447;44.530;18.620;2024-03-17T09:03:08;174.85;;;76.15;;
36415;SDS011;22447;44.530;18.620;2024-03-17T09:05:38;166.65;;;70.65;;
36415;SDS011;22447;44.530;18.620;2024-03-17T09:10:47;154.55;;;72.13;;
36415;SDS011;22447;44.530;18.620;2024-03-17T09:13:15;156.15;;;71.25;;
36415;SDS011;22447;44.530;18.620;2024-03-17T09:18:25;108.18;;;51.08;;
36415;SDS011;22447;44.530;18.620;2024-03-17T09:23:25;122.68;;;51.13;;
36415;SDS011;22447;44.530;18.620;2024-03-17T09:25:58;112.50;;;50.80;;
36415;SDS011;22447;44.530;18.620;2024-03-17T09:28:24;101.57;;;47.03;;
36415;SDS011;22447;44.530;18.620;2024-03-17T09:30:50;99.47;;;44.85;;
36415;SDS011;22447;44.530;18.620;2024-03-17T09:33:18;88.65;;;36.30;;
36415;SDS011;22447;44.530;18.620;2024-03-17T09:35:52;110.97;;;44.63;;
36415;SDS011;22447;44.530;18.620;2024-03-17T09:38:24;59.65;;;27.67;;
36415;SDS011;22447;44.530;18.620;2024-03-17T09:40:50;79.07;;;36.10;;
36415;SDS011;22447;44.530;18.620;2024-03-17T09:43:18;35.30;;;18.63;;
36415;SDS011;22447;44.530;18.620;2024-03-17T09:45:46;17.00;;;10.00;;
36415;SDS011;22447;44.530;18.620;2024-03-17T09:48:15;16.92;;;10.70;;
36415;SDS011;22447;44.530;18.620;2024-03-17T09:50:50;18.77;;;11.10;;
36415;SDS011;22447;44.530;18.620;2024-03-17T09:53:17;16.90;;;9.68;;
36415;SDS011;22447;44.530;18.620;2024-03-17T09:55:51;13.68;;;8.10;;
36415;SDS011;22447;44.530;18.620;2024-03-17T09:58:20;20.60;;;8.73;;
36415;SDS011;22447;44.530;18.620;2024-03-17T10:00:46;44.80;;;21.80;;
36415;SDS011;22447;44.530;18.620;2024-03-17T10:03:12;50.85;;;23.40;;
36415;SDS011;22447;44.530;18.620;2024-03-17T10:06:01;29.45;;;14.38;;
36415;SDS011;22447;44.530;18.620;2024-03-17T10:08:27;46.78;;;19.83;;
36415;SDS011;22447;44.530;18.620;2024-03-17T10:10:53;49.75;;;22.30;;
36415;SDS011;22447;44.530;18.620;2024-03-17T10:13:19;40.15;;;19.75;;
36415;SDS011;22447;44.530;18.620;2024-03-17T10:15:48;40.55;;;20.73;;
36415;SDS011;22447;44.530;18.620;2024-03-17T10:18:21;40.47;;;19.27;;
36415;SDS011;22447;44.530;18.620;2024-03-17T10:20:50;32.90;;;17.55;;
36415;SDS011;22447;44.530;18.620;2024-03-17T10:23:20;44.75;;;24.92;;
36415;SDS011;22447;44.530;18.620;2024-03-17T10:25:46;43.05;;;24.52;;
36415;SDS011;22447;44.530;18.620;2024-03-17T10:28:13;40.55;;;21.52;;
36415;SDS011;22447;44.530;18.620;2024-03-17T10:30:40;30.65;;;15.95;;
36415;SDS011;22447;44.530;18.620;2024-03-17T10:33:07;32.28;;;17.98;;
36415;SDS011;22447;44.530;18.620;2024-03-17T10:35:48;22.35;;;12.45;;
36415;SDS011;22447;44.530;18.620;2024-03-17T10:38:14;18.25;;;9.10;;
36415;SDS011;22447;44.530;18.620;2024-03-17T10:40:41;23.27;;;12.60;;
36415;SDS011;22447;44.530;18.620;2024-03-17T10:43:07;18.65;;;11.55;;
36415;SDS011;22447;44.530;18.620;2024-03-17T10:45:35;17.67;;;9.23;;
36415;SDS011;22447;44.530;18.620;2024-03-17T10:48:07;23.83;;;11.15;;
36415;SDS011;22447;44.530;18.620;2024-03-17T10:50:37;19.23;;;10.07;;
36415;SDS011;22447;44.530;18.620;2024-03-17T10:53:04;17.58;;;10.95;;
36415;SDS011;22447;44.530;18.620;2024-03-17T10:55:42;17.48;;;8.48;;
36415;SDS011;22447;44.530;18.620;2024-03-17T10:58:28;14.40;;;7.07;;
36415;SDS011;22447;44.530;18.620;2024-03-17T11:01:03;15.32;;;8.52;;
36415;SDS011;22447;44.530;18.620;2024-03-17T11:03:32;20.88;;;9.38;;
36415;SDS011;22447;44.530;18.620;2024-03-17T11:06:03;12.43;;;6.13;;
36415;SDS011;22447;44.530;18.620;2024-03-17T11:08:31;14.98;;;7.15;;
36415;SDS011;22447;44.530;18.620;2024-03-17T11:10:59;12.40;;;6.13;;
36415;SDS011;22447;44.530;18.620;2024-03-17T11:13:29;15.98;;;7.55;;
36415;SDS011;22447;44.530;18.620;2024-03-17T11:15:57;16.63;;;6.95;;
36415;SDS011;22447;44.530;18.620;2024-03-17T11:18:36;10.38;;;6.47;;
36415;SDS011;22447;44.530;18.620;2024-03-17T11:23:34;21.52;;;11.77;;
36415;SDS011;22447;44.530;18.620;2024-03-17T11:26:02;18.58;;;9.75;;
36415;SDS011;22447;44.530;18.620;2024-03-17T11:34:02;23.65;;;10.50;;
36415;SDS011;22447;44.530;18.620;2024-03-17T11:36:31;21.77;;;12.43;;
36415;SDS011;22447;44.530;18.620;2024-03-17T11:39:05;24.30;;;13.60;;
36415;SDS011;22447;44.530;18.620;2024-03-17T11:41:49;23.75;;;12.77;;
36415;SDS011;22447;44.530;18.620;2024-03-17T11:49:34;16.20;;;10.02;;
36415;SDS011;22447;44.530;18.620;2024-03-17T11:52:05;14.43;;;7.40;;
36415;SDS011;22447;44.530;18.620;2024-03-17T11:54:38;8.73;;;5.40;;
36415;SDS011;22447;44.530;18.620;2024-03-17T11:57:17;5.00;;;2.88;;
36415;SDS011;22447;44.530;18.620;2024-03-17T11:59:49;13.85;;;7.10;;
36415;SDS011;22447;44.530;18.620;2024-03-17T12:02:20;14.60;;;8.05;;
36415;SDS011;22447;44.530;18.620;2024-03-17T12:04:48;14.98;;;5.03;;
36415;SDS011;22447;44.530;18.620;2024-03-17T12:07:18;33.67;;;19.88;;
36415;SDS011;22447;44.530;18.620;2024-03-17T12:09:46;12.75;;;7.40;;
36415;SDS011;22447;44.530;18.620;2024-03-17T12:12:22;13.05;;;6.30;;
36415;SDS011;22447;44.530;18.620;2024-03-17T12:14:48;15.20;;;8.38;;
36415;SDS011;22447;44.530;18.620;2024-03-17T12:17:19;9.15;;;5.50;;
36415;SDS011;22447;44.530;18.620;2024-03-17T12:19:46;10.23;;;5.85;;
36415;SDS011;22447;44.530;18.620;2024-03-17T12:22:15;10.48;;;6.18;;
36415;SDS011;22447;44.530;18.620;2024-03-17T12:24:50;8.82;;;5.70;;
36415;SDS011;22447;44.530;18.620;2024-03-17T12:27:19;9.77;;;6.78;;
36415;SDS011;22447;44.530;18.620;2024-03-17T12:29:50;12.20;;;6.78;;
36415;SDS011;22447;44.530;18.620;2024-03-17T12:32:23;9.93;;;7.25;;
36415;SDS011;22447;44.530;18.620;2024-03-17T12:34:54;14.85;;;8.55;;
36415;SDS011;22447;44.530;18.620;2024-03-17T12:37:26;11.90;;;7.70;;
36415;SDS011;22447;44.530;18.620;2024-03-17T12:39:59;13.20;;;7.38;;
36415;SDS011;22447;44.530;18.620;2024-03-17T12:42:26;15.43;;;7.85;;
36415;SDS011;22447;44.530;18.620;2024-03-17T12:44:56;10.82;;;6.72;;
36415;SDS011;22447;44.530;18.620;2024-03-17T12:47:30;11.02;;;6.32;;
36415;SDS011;22447;44.530;18.620;2024-03-17T12:49:59;11.50;;;6.63;;
36415;SDS011;22447;44.530;18.620;2024-03-17T12:55:01;11.25;;;6.38;;
36415;SDS011;22447;44.530;18.620;2024-03-17T12:57:47;12.60;;;6.40;;
36415;SDS011;22447;44.530;18.620;2024-03-17T13:00:33;8.55;;;5.15;;
36415;SDS011;22447;44.530;18.620;2024-03-17T13:03:00;8.60;;;5.03;;
36415;SDS011;22447;44.530;18.620;2024-03-17T13:05:27;14.55;;;5.47;;
36415;SDS011;22447;44.530;18.620;2024-03-17T13:07:53;14.88;;;5.30;;
36415;SDS011;22447;44.530;18.620;2024-03-17T13:10:23;11.15;;;5.47;;
36415;SDS011;22447;44.530;18.620;2024-03-17T13:13:00;10.75;;;5.63;;
36415;SDS011;22447;44.530;18.620;2024-03-17T13:15:31;12.07;;;6.60;;
36415;SDS011;22447;44.530;18.620;2024-03-17T13:17:57;9.90;;;4.72;;
36415;SDS011;22447;44.530;18.620;2024-03-17T13:20:24;6.13;;;4.30;;
36415;SDS011;22447;44.530;18.620;2024-03-17T13:22:51;7.63;;;4.35;;
36415;SDS011;22447;44.530;18.620;2024-03-17T13:25:18;6.43;;;3.60;;
36415;SDS011;22447;44.530;18.620;2024-03-17T13:27:46;10.32;;;4.25;;
36415;SDS011;22447;44.530;18.620;2024-03-17T13:30:17;6.78;;;3.33;;
36415;SDS011;22447;44.530;18.620;2024-03-17T13:32:44;8.00;;;3.17;;
36415;SDS011;22447;44.530;18.620;2024-03-17T13:37:46;5.35;;;3.45;;
36415;SDS011;22447;44.530;18.620;2024-03-17T13:40:16;6.20;;;3.95;;
36415;SDS011;22447;44.530;18.620;2024-03-17T13:42:45;6.28;;;3.90;;
36415;SDS011;22447;44.530;18.620;2024-03-17T13:45:12;8.45;;;3.72;;
36415;SDS011;22447;44.530;18.620;2024-03-17T13:47:41;4.97;;;2.80;;
36415;SDS011;22447;44.530;18.620;2024-03-17T13:50:12;3.95;;;2.45;;
36415;SDS011;22447;44.530;18.620;2024-03-17T13:52:39;4.50;;;2.45;;
36415;SDS011;22447;44.530;18.620;2024-03-17T13:55:06;3.25;;;2.05;;
36415;SDS011;22447;44.530;18.620;2024-03-17T13:57:45;2.60;;;1.90;;
36415;SDS011;22447;44.530;18.620;2024-03-17T14:02:42;2.65;;;1.90;;
36415;SDS011;22447;44.530;18.620;2024-03-17T14:05:10;4.22;;;2.13;;
36415;SDS011;22447;44.530;18.620;2024-03-17T14:07:38;5.82;;;2.72;;
36415;SDS011;22447;44.530;18.620;2024-03-17T14:10:04;4.75;;;2.42;;
36415;SDS011;22447;44.530;18.620;2024-03-17T14:12:32;3.42;;;1.98;;
36415;SDS011;22447;44.530;18.620;2024-03-17T14:14:57;3.72;;;2.65;;
36415;SDS011;22447;44.530;18.620;2024-03-17T14:17:23;5.47;;;2.78;;
36415;SDS011;22447;44.530;18.620;2024-03-17T14:19:49;6.80;;;2.35;;
36415;SDS011;22447;44.530;18.620;2024-03-17T14:22:15;4.78;;;2.00;;
36415;SDS011;22447;44.530;18.620;2024-03-17T14:24:41;8.43;;;4.07;;
36415;SDS011;22447;44.530;18.620;2024-03-17T14:27:07;5.90;;;3.33;;
36415;SDS011;22447;44.530;18.620;2024-03-17T14:29:34;8.73;;;3.47;;
36415;SDS011;22447;44.530;18.620;2024-03-17T14:32:00;5.13;;;3.45;;
36415;SDS011;22447;44.530;18.620;2024-03-17T14:34:25;5.03;;;3.05;;
36415;SDS011;22447;44.530;18.620;2024-03-17T14:36:55;4.50;;;3.10;;
36415;SDS011;22447;44.530;18.620;2024-03-17T14:39:21;5.07;;;3.50;;
36415;SDS011;22447;44.530;18.620;2024-03-17T14:41:47;5.80;;;3.35;;
36415;SDS011;22447;44.530;18.620;2024-03-17T14:44:12;7.55;;;3.78;;
36415;SDS011;22447;44.530;18.620;2024-03-17T14:46:38;6.18;;;3.20;;
36415;SDS011;22447;44.530;18.620;2024-03-17T14:49:05;5.07;;;3.10;;
36415;SDS011;22447;44.530;18.620;2024-03-17T14:51:31;5.18;;;3.25;;
36415;SDS011;22447;44.530;18.620;2024-03-17T14:53:56;8.98;;;4.00;;